sensor_id;sensor_type;location;lat;lon;timestamp;temperature;humidity
4673;DHT22;61885;53.560;9.940;2024-03-02T00:00:26;8.90;89.60
4673;DHT22;61885;53.560;9.940;2024-03-02T00:02:28;9.00;89.40
4673;DHT22;61885;53.560;9.940;2024-03-02T00:04:30;8.90;89.30
4673;DHT22;61885;53.560;9.940;2024-03-02T00:06:31;8.80;89.50
4673;DHT22;61885;53.560;9.940;2024-03-02T00:08:32;8.90;89.60
4673;DHT22;61885;53.560;9.940;2024-03-02T00:10:37;8.80;89.40
4673;DHT22;61885;53.560;9.940;2024-03-02T00:12:40;8.90;89.30
4673;DHT22;61885;53.560;9.940;2024-03-02T00:14:44;8.80;89.40
4673;DHT22;61885;53.560;9.940;2024-03-02T00:16:45;8.80;89.30
4673;DHT22;61885;53.560;9.940;2024-03-02T00:18:47;8.90;89.40
4673;DHT22;61885;53.560;9.940;2024-03-02T00:20:49;8.90;89.20
4673;DHT22;61885;53.560;9.940;2024-03-02T00:22:59;8.80;89.10
4673;DHT22;61885;53.560;9.940;2024-03-02T00:25:04;8.80;89.10
4673;DHT22;61885;53.560;9.940;2024-03-02T00:27:07;8.80;89.30
4673;DHT22;61885;53.560;9.940;2024-03-02T00:29:15;8.90;89.20
4673;DHT22;61885;53.560;9.940;2024-03-02T00:31:20;8.90;89.10
4673;DHT22;61885;53.560;9.940;2024-03-02T00:33:22;8.90;89.00
4673;DHT22;61885;53.560;9.940;2024-03-02T00:35:23;8.80;89.10
4673;DHT22;61885;53.560;9.940;2024-03-02T00:37:26;8.90;89.30
4673;DHT22;61885;53.560;9.940;2024-03-02T00:39:29;8.80;89.40
4673;DHT22;61885;53.560;9.940;2024-03-02T00:41:32;8.90;89.40
4673;DHT22;61885;53.560;9.940;2024-03-02T00:43:42;8.80;89.60
4673;DHT22;61885;53.560;9.940;2024-03-02T00:45:44;8.90;89.90
4673;DHT22;61885;53.560;9.940;2024-03-02T00:47:47;8.90;89.80
4673;DHT22;61885;53.560;9.940;2024-03-02T00:49:49;8.80;89.90
4673;DHT22;61885;53.560;9.940;2024-03-02T00:51:52;8.80;89.90
4673;DHT22;61885;53.560;9.940;2024-03-02T00:53:55;8.80;90.00
4673;DHT22;61885;53.560;9.940;2024-03-02T00:55:57;8.80;90.30
4673;DHT22;61885;53.560;9.940;2024-03-02T00:57:58;8.90;90.40
4673;DHT22;61885;53.560;9.940;2024-03-02T01:00:00;8.80;90.30
4673;DHT22;61885;53.560;9.940;2024-03-02T01:02:03;8.80;90.50
4673;DHT22;61885;53.560;9.940;2024-03-02T01:04:07;8.80;90.70
4673;DHT22;61885;53.560;9.940;2024-03-02T01:06:09;8.80;90.60
4673;DHT22;61885;53.560;9.940;2024-03-02T01:08:10;8.80;90.90
4673;DHT22;61885;53.560;9.940;2024-03-02T01:10:12;8.80;91.00
4673;DHT22;61885;53.560;9.940;2024-03-02T01:12:14;8.70;91.20
4673;DHT22;61885;53.560;9.940;2024-03-02T01:14:15;8.70;91.60
4673;DHT22;61885;53.560;9.940;2024-03-02T01:16:16;8.70;91.70
4673;DHT22;61885;53.560;9.940;2024-03-02T01:18:18;8.70;92.00
4673;DHT22;61885;53.560;9.940;2024-03-02T01:20:20;8.60;92.30
4673;DHT22;61885;53.560;9.940;2024-03-02T01:22:23;8.70;92.30
4673;DHT22;61885;53.560;9.940;2024-03-02T01:24:26;8.60;92.60
4673;DHT22;61885;53.560;9.940;2024-03-02T01:26:27;8.50;92.70
4673;DHT22;61885;53.560;9.940;2024-03-02T01:28:29;8.50;93.10
4673;DHT22;61885;53.560;9.940;2024-03-02T01:30:31;8.50;93.30
4673;DHT22;61885;53.560;9.940;2024-03-02T01:32:32;8.50;93.50
4673;DHT22;61885;53.560;9.940;2024-03-02T01:34:33;8.40;93.90
4673;DHT22;61885;53.560;9.940;2024-03-02T01:36:36;8.30;94.20
4673;DHT22;61885;53.560;9.940;2024-03-02T01:38:38;8.40;94.50
4673;DHT22;61885;53.560;9.940;2024-03-02T01:40:40;8.30;94.70
4673;DHT22;61885;53.560;9.940;2024-03-02T01:42:43;8.30;95.00
4673;DHT22;61885;53.560;9.940;2024-03-02T01:44:45;8.20;95.00
4673;DHT22;61885;53.560;9.940;2024-03-02T01:46:47;8.20;95.20
4673;DHT22;61885;53.560;9.940;2024-03-02T01:48:49;8.10;95.50
4673;DHT22;61885;53.560;9.940;2024-03-02T01:50:50;8.10;95.50
4673;DHT22;61885;53.560;9.940;2024-03-02T01:52:54;8.10;95.60
4673;DHT22;61885;53.560;9.940;2024-03-02T01:54:54;8.10;95.90
4673;DHT22;61885;53.560;9.940;2024-03-02T01:56:56;8.10;96.00
4673;DHT22;61885;53.560;9.940;2024-03-02T01:58:58;8.20;96.20
4673;DHT22;61885;53.560;9.940;2024-03-02T02:01:00;8.10;96.30
4673;DHT22;61885;53.560;9.940;2024-03-02T02:03:02;8.00;96.20
4673;DHT22;61885;53.560;9.940;2024-03-02T02:05:03;8.10;96.40
4673;DHT22;61885;53.560;9.940;2024-03-02T02:07:05;8.10;96.50
4673;DHT22;61885;53.560;9.940;2024-03-02T02:09:08;8.10;96.20
4673;DHT22;61885;53.560;9.940;2024-03-02T02:11:10;8.10;96.30
4673;DHT22;61885;53.560;9.940;2024-03-02T02:13:12;8.00;96.40
4673;DHT22;61885;53.560;9.940;2024-03-02T02:15:24;8.00;96.50
4673;DHT22;61885;53.560;9.940;2024-03-02T02:17:26;7.90;96.40
4673;DHT22;61885;53.560;9.940;2024-03-02T02:19:28;8.00;96.70
4673;DHT22;61885;53.560;9.940;2024-03-02T02:21:31;7.90;96.50
4673;DHT22;61885;53.560;9.940;2024-03-02T02:23:33;7.90;96.70
4673;DHT22;61885;53.560;9.940;2024-03-02T02:25:35;8.00;96.70
4673;DHT22;61885;53.560;9.940;2024-03-02T02:27:37;8.00;96.70
4673;DHT22;61885;53.560;9.940;2024-03-02T02:29:39;8.00;96.60
4673;DHT22;61885;53.560;9.940;2024-03-02T02:31:41;7.90;96.80
4673;DHT22;61885;53.560;9.940;2024-03-02T02:33:43;8.00;96.60
4673;DHT22;61885;53.560;9.940;2024-03-02T02:35:44;7.90;96.70
4673;DHT22;61885;53.560;9.940;2024-03-02T02:37:48;7.90;96.70
4673;DHT22;61885;53.560;9.940;2024-03-02T02:39:50;8.00;96.80
4673;DHT22;61885;53.560;9.940;2024-03-02T02:41:51;8.00;96.30
4673;DHT22;61885;53.560;9.940;2024-03-02T02:43:53;7.90;96.40
4673;DHT22;61885;53.560;9.940;2024-03-02T02:45:54;8.00;96.50
4673;DHT22;61885;53.560;9.940;2024-03-02T02:47:56;8.00;96.20
4673;DHT22;61885;53.560;9.940;2024-03-02T02:49:58;8.00;96.30
4673;DHT22;61885;53.560;9.940;2024-03-02T02:51:58;7.90;96.20
4673;DHT22;61885;53.560;9.940;2024-03-02T02:54:02;7.90;96.00
4673;DHT22;61885;53.560;9.940;2024-03-02T02:56:04;8.00;95.90
4673;DHT22;61885;53.560;9.940;2024-03-02T02:58:06;8.00;95.70
4673;DHT22;61885;53.560;9.940;2024-03-02T03:00:09;8.00;95.80
4673;DHT22;61885;53.560;9.940;2024-03-02T03:02:14;8.00;95.90
4673;DHT22;61885;53.560;9.940;2024-03-02T03:04:16;8.10;95.80
4673;DHT22;61885;53.560;9.940;2024-03-02T03:06:18;8.00;95.70
4673;DHT22;61885;53.560;9.940;2024-03-02T03:08:19;8.00;95.50
4673;DHT22;61885;53.560;9.940;2024-03-02T03:10:22;7.90;95.90
4673;DHT22;61885;53.560;9.940;2024-03-02T03:12:26;8.00;95.60
4673;DHT22;61885;53.560;9.940;2024-03-02T03:14:28;8.00;95.50
4673;DHT22;61885;53.560;9.940;2024-03-02T03:16:30;7.90;95.50
4673;DHT22;61885;53.560;9.940;2024-03-02T03:18:32;8.00;95.60
4673;DHT22;61885;53.560;9.940;2024-03-02T03:20:33;8.00;95.60
4673;DHT22;61885;53.560;9.940;2024-03-02T03:22:34;7.90;95.60
4673;DHT22;61885;53.560;9.940;2024-03-02T03:24:36;7.90;95.40
4673;DHT22;61885;53.560;9.940;2024-03-02T03:26:39;7.90;95.50
4673;DHT22;61885;53.560;9.940;2024-03-02T03:28:41;7.90;95.80
4673;DHT22;61885;53.560;9.940;2024-03-02T03:30:43;7.80;95.60
4673;DHT22;61885;53.560;9.940;2024-03-02T03:32:43;7.90;95.80
4673;DHT22;61885;53.560;9.940;2024-03-02T03:34:45;7.80;95.80
4673;DHT22;61885;53.560;9.940;2024-03-02T03:36:46;7.80;96.00
4673;DHT22;61885;53.560;9.940;2024-03-02T03:38:48;7.90;95.90
4673;DHT22;61885;53.560;9.940;2024-03-02T03:40:50;7.90;96.00
4673;DHT22;61885;53.560;9.940;2024-03-02T03:42:53;7.90;96.00
4673;DHT22;61885;53.560;9.940;2024-03-02T03:44:56;7.80;96.00
4673;DHT22;61885;53.560;9.940;2024-03-02T03:46:58;7.80;95.80
4673;DHT22;61885;53.560;9.940;2024-03-02T03:49:01;7.90;95.90
4673;DHT22;61885;53.560;9.940;2024-03-02T03:51:04;7.90;95.80
4673;DHT22;61885;53.560;9.940;2024-03-02T03:53:06;7.80;95.60
4673;DHT22;61885;53.560;9.940;2024-03-02T03:55:07;7.80;95.80
4673;DHT22;61885;53.560;9.940;2024-03-02T03:57:09;7.80;95.60
4673;DHT22;61885;53.560;9.940;2024-03-02T03:59:11;7.90;95.70
4673;DHT22;61885;53.560;9.940;2024-03-02T04:01:13;7.90;95.70
4673;DHT22;61885;53.560;9.940;2024-03-02T04:03:15;7.80;95.60
4673;DHT22;61885;53.560;9.940;2024-03-02T04:05:17;7.90;95.60
4673;DHT22;61885;53.560;9.940;2024-03-02T04:07:19;7.70;95.40
4673;DHT22;61885;53.560;9.940;2024-03-02T04:09:20;7.70;95.40
4673;DHT22;61885;53.560;9.940;2024-03-02T04:11:22;7.80;95.60
4673;DHT22;61885;53.560;9.940;2024-03-02T04:13:24;7.80;95.40
4673;DHT22;61885;53.560;9.940;2024-03-02T04:15:27;7.70;95.50
4673;DHT22;61885;53.560;9.940;2024-03-02T04:17:29;7.80;95.50
4673;DHT22;61885;53.560;9.940;2024-03-02T04:19:31;7.80;95.60
4673;DHT22;61885;53.560;9.940;2024-03-02T04:21:33;7.80;95.50
4673;DHT22;61885;53.560;9.940;2024-03-02T04:23:35;7.70;95.50
4673;DHT22;61885;53.560;9.940;2024-03-02T04:25:35;7.80;95.30
4673;DHT22;61885;53.560;9.940;2024-03-02T04:27:37;7.80;95.60
4673;DHT22;61885;53.560;9.940;2024-03-02T04:29:38;7.70;95.40
4673;DHT22;61885;53.560;9.940;2024-03-02T04:31:41;7.60;95.40
4673;DHT22;61885;53.560;9.940;2024-03-02T04:33:43;7.70;95.50
4673;DHT22;61885;53.560;9.940;2024-03-02T04:35:45;7.70;95.50
4673;DHT22;61885;53.560;9.940;2024-03-02T04:37:46;7.70;95.60
4673;DHT22;61885;53.560;9.940;2024-03-02T04:39:48;7.70;95.40
4673;DHT22;61885;53.560;9.940;2024-03-02T04:41:51;7.70;95.30
4673;DHT22;61885;53.560;9.940;2024-03-02T04:43:53;7.70;95.40
4673;DHT22;61885;53.560;9.940;2024-03-02T04:45:54;7.60;95.50
4673;DHT22;61885;53.560;9.940;2024-03-02T04:47:58;7.70;95.30
4673;DHT22;61885;53.560;9.940;2024-03-02T04:49:59;7.60;95.60
4673;DHT22;61885;53.560;9.940;2024-03-02T04:52:01;7.60;95.60
4673;DHT22;61885;53.560;9.940;2024-03-02T04:54:03;7.50;95.60
4673;DHT22;61885;53.560;9.940;2024-03-02T04:56:04;7.60;95.60
4673;DHT22;61885;53.560;9.940;2024-03-02T04:58:39;7.60;95.50
4673;DHT22;61885;53.560;9.940;2024-03-02T05:00:41;7.50;95.70
4673;DHT22;61885;53.560;9.940;2024-03-02T05:02:46;7.60;95.60
4673;DHT22;61885;53.560;9.940;2024-03-02T05:04:49;7.60;95.60
4673;DHT22;61885;53.560;9.940;2024-03-02T05:06:51;7.50;95.70
4673;DHT22;61885;53.560;9.940;2024-03-02T05:08:55;7.50;95.60
4673;DHT22;61885;53.560;9.940;2024-03-02T05:10:57;7.50;95.80
4673;DHT22;61885;53.560;9.940;2024-03-02T05:13:19;7.60;95.80
4673;DHT22;61885;53.560;9.940;2024-03-02T05:15:21;7.50;95.90
4673;DHT22;61885;53.560;9.940;2024-03-02T05:17:23;7.50;95.80
4673;DHT22;61885;53.560;9.940;2024-03-02T05:19:24;7.50;95.60
4673;DHT22;61885;53.560;9.940;2024-03-02T05:21:28;7.50;95.50
4673;DHT22;61885;53.560;9.940;2024-03-02T05:23:29;7.50;95.80
4673;DHT22;61885;53.560;9.940;2024-03-02T05:25:31;7.40;95.70
4673;DHT22;61885;53.560;9.940;2024-03-02T05:27:35;7.40;95.70
4673;DHT22;61885;53.560;9.940;2024-03-02T05:29:37;7.50;95.70
4673;DHT22;61885;53.560;9.940;2024-03-02T05:31:39;7.40;95.80
4673;DHT22;61885;53.560;9.940;2024-03-02T05:33:41;7.40;95.90
4673;DHT22;61885;53.560;9.940;2024-03-02T05:35:43;7.50;95.80
4673;DHT22;61885;53.560;9.940;2024-03-02T05:37:46;7.40;95.90
4673;DHT22;61885;53.560;9.940;2024-03-02T05:39:48;7.50;95.80
4673;DHT22;61885;53.560;9.940;2024-03-02T05:41:50;7.50;95.90
4673;DHT22;61885;53.560;9.940;2024-03-02T05:43:52;7.50;95.80
4673;DHT22;61885;53.560;9.940;2024-03-02T05:45:53;7.50;95.70
4673;DHT22;61885;53.560;9.940;2024-03-02T05:47:54;7.50;95.70
4673;DHT22;61885;53.560;9.940;2024-03-02T05:49:56;7.40;95.60
4673;DHT22;61885;53.560;9.940;2024-03-02T05:51:58;7.40;95.80
4673;DHT22;61885;53.560;9.940;2024-03-02T05:54:01;7.30;95.60
4673;DHT22;61885;53.560;9.940;2024-03-02T05:56:03;7.40;95.60
4673;DHT22;61885;53.560;9.940;2024-03-02T05:58:05;7.30;95.60
4673;DHT22;61885;53.560;9.940;2024-03-02T06:00:23;7.30;95.70
4673;DHT22;61885;53.560;9.940;2024-03-02T06:02:27;7.30;95.40
4673;DHT22;61885;53.560;9.940;2024-03-02T06:04:29;7.30;95.60
4673;DHT22;61885;53.560;9.940;2024-03-02T06:06:30;7.40;95.60
4673;DHT22;61885;53.560;9.940;2024-03-02T06:08:32;7.20;95.70
4673;DHT22;61885;53.560;9.940;2024-03-02T06:10:37;7.30;95.80
4673;DHT22;61885;53.560;9.940;2024-03-02T06:12:38;7.30;95.90
4673;DHT22;61885;53.560;9.940;2024-03-02T06:14:40;7.30;95.80
4673;DHT22;61885;53.560;9.940;2024-03-02T06:16:43;7.30;95.80
4673;DHT22;61885;53.560;9.940;2024-03-02T06:18:45;7.20;96.00
4673;DHT22;61885;53.560;9.940;2024-03-02T06:20:46;7.20;95.80
4673;DHT22;61885;53.560;9.940;2024-03-02T06:22:49;7.20;96.00
4673;DHT22;61885;53.560;9.940;2024-03-02T06:24:51;7.20;95.80
4673;DHT22;61885;53.560;9.940;2024-03-02T06:26:54;7.10;96.10
4673;DHT22;61885;53.560;9.940;2024-03-02T06:28:56;7.20;96.10
4673;DHT22;61885;53.560;9.940;2024-03-02T06:30:58;7.20;96.30
4673;DHT22;61885;53.560;9.940;2024-03-02T06:32:59;7.10;96.30
4673;DHT22;61885;53.560;9.940;2024-03-02T06:35:01;7.10;96.30
4673;DHT22;61885;53.560;9.940;2024-03-02T06:37:04;7.10;96.20
4673;DHT22;61885;53.560;9.940;2024-03-02T06:39:06;7.10;96.40
4673;DHT22;61885;53.560;9.940;2024-03-02T06:41:08;7.20;96.40
4673;DHT22;61885;53.560;9.940;2024-03-02T06:43:11;7.10;96.40
4673;DHT22;61885;53.560;9.940;2024-03-02T06:45:12;7.10;96.10
4673;DHT22;61885;53.560;9.940;2024-03-02T06:47:14;7.20;96.40
4673;DHT22;61885;53.560;9.940;2024-03-02T06:49:17;7.50;95.80
4673;DHT22;61885;53.560;9.940;2024-03-02T06:51:19;7.40;95.10
4673;DHT22;61885;53.560;9.940;2024-03-02T06:53:20;7.40;94.90
4673;DHT22;61885;53.560;9.940;2024-03-02T06:55:23;7.30;95.00
4673;DHT22;61885;53.560;9.940;2024-03-02T06:57:25;7.40;94.90
4673;DHT22;61885;53.560;9.940;2024-03-02T06:59:28;7.40;95.00
4673;DHT22;61885;53.560;9.940;2024-03-02T07:01:31;7.40;95.00
4673;DHT22;61885;53.560;9.940;2024-03-02T07:03:33;7.50;95.00
4673;DHT22;61885;53.560;9.940;2024-03-02T07:05:34;7.50;94.60
4673;DHT22;61885;53.560;9.940;2024-03-02T07:07:35;7.40;94.80
4673;DHT22;61885;53.560;9.940;2024-03-02T07:09:38;7.50;94.80
4673;DHT22;61885;53.560;9.940;2024-03-02T07:11:40;7.50;94.70
4673;DHT22;61885;53.560;9.940;2024-03-02T07:13:41;7.50;94.50
4673;DHT22;61885;53.560;9.940;2024-03-02T07:15:45;7.50;94.50
4673;DHT22;61885;53.560;9.940;2024-03-02T07:18:06;7.60;94.50
4673;DHT22;61885;53.560;9.940;2024-03-02T07:20:09;7.60;94.20
4673;DHT22;61885;53.560;9.940;2024-03-02T07:22:12;7.70;94.50
4673;DHT22;61885;53.560;9.940;2024-03-02T07:24:13;7.60;94.40
4673;DHT22;61885;53.560;9.940;2024-03-02T07:26:16;7.70;94.20
4673;DHT22;61885;53.560;9.940;2024-03-02T07:28:19;7.60;94.30
4673;DHT22;61885;53.560;9.940;2024-03-02T07:30:21;7.60;94.10
4673;DHT22;61885;53.560;9.940;2024-03-02T07:32:25;7.70;94.00
4673;DHT22;61885;53.560;9.940;2024-03-02T07:34:26;7.70;94.00
4673;DHT22;61885;53.560;9.940;2024-03-02T07:36:28;7.70;94.00
4673;DHT22;61885;53.560;9.940;2024-03-02T07:38:30;7.80;94.40
4673;DHT22;61885;53.560;9.940;2024-03-02T07:40:34;7.80;93.90
4673;DHT22;61885;53.560;9.940;2024-03-02T07:42:35;7.90;93.70
4673;DHT22;61885;53.560;9.940;2024-03-02T07:44:37;8.00;93.70
4673;DHT22;61885;53.560;9.940;2024-03-02T07:46:39;7.90;92.90
4673;DHT22;61885;53.560;9.940;2024-03-02T07:48:43;8.00;92.80
4673;DHT22;61885;53.560;9.940;2024-03-02T07:50:46;8.10;92.80
4673;DHT22;61885;53.560;9.940;2024-03-02T07:52:46;8.00;92.60
4673;DHT22;61885;53.560;9.940;2024-03-02T07:54:48;8.10;92.90
4673;DHT22;61885;53.560;9.940;2024-03-02T07:56:50;8.00;92.40
4673;DHT22;61885;53.560;9.940;2024-03-02T07:58:52;8.00;92.70
4673;DHT22;61885;53.560;9.940;2024-03-02T08:00:54;8.00;92.70
4673;DHT22;61885;53.560;9.940;2024-03-02T08:02:56;7.90;92.50
4673;DHT22;61885;53.560;9.940;2024-03-02T08:04:59;8.10;92.60
4673;DHT22;61885;53.560;9.940;2024-03-02T08:07:01;8.00;92.20
4673;DHT22;61885;53.560;9.940;2024-03-02T08:09:03;8.00;92.50
4673;DHT22;61885;53.560;9.940;2024-03-02T08:11:09;8.10;92.60
4673;DHT22;61885;53.560;9.940;2024-03-02T08:13:11;8.20;92.40
4673;DHT22;61885;53.560;9.940;2024-03-02T08:15:14;8.20;92.20
4673;DHT22;61885;53.560;9.940;2024-03-02T08:17:16;8.20;92.00
4673;DHT22;61885;53.560;9.940;2024-03-02T08:19:18;8.20;92.20
4673;DHT22;61885;53.560;9.940;2024-03-02T08:21:21;8.20;92.20
4673;DHT22;61885;53.560;9.940;2024-03-02T08:23:23;8.20;92.00
4673;DHT22;61885;53.560;9.940;2024-03-02T08:25:25;8.20;91.80
4673;DHT22;61885;53.560;9.940;2024-03-02T08:27:27;8.30;91.80
4673;DHT22;61885;53.560;9.940;2024-03-02T08:29:29;8.30;91.80
4673;DHT22;61885;53.560;9.940;2024-03-02T08:31:30;8.40;91.70
4673;DHT22;61885;53.560;9.940;2024-03-02T08:33:32;8.40;91.30
4673;DHT22;61885;53.560;9.940;2024-03-02T08:35:34;8.50;91.10
4673;DHT22;61885;53.560;9.940;2024-03-02T08:37:39;8.40;91.20
4673;DHT22;61885;53.560;9.940;2024-03-02T08:39:41;8.50;91.10
4673;DHT22;61885;53.560;9.940;2024-03-02T08:41:44;8.40;91.00
4673;DHT22;61885;53.560;9.940;2024-03-02T08:43:46;8.60;90.90
4673;DHT22;61885;53.560;9.940;2024-03-02T08:45:48;8.50;90.70
4673;DHT22;61885;53.560;9.940;2024-03-02T08:47:51;8.60;90.60
4673;DHT22;61885;53.560;9.940;2024-03-02T08:49:53;8.50;90.80
4673;DHT22;61885;53.560;9.940;2024-03-02T08:51:55;8.60;90.60
4673;DHT22;61885;53.560;9.940;2024-03-02T08:53:58;8.80;90.40
4673;DHT22;61885;53.560;9.940;2024-03-02T08:55:59;8.80;90.40
4673;DHT22;61885;53.560;9.940;2024-03-02T08:58:01;8.80;90.00
4673;DHT22;61885;53.560;9.940;2024-03-02T09:00:08;9.00;89.60
4673;DHT22;61885;53.560;9.940;2024-03-02T09:02:13;9.10;89.30
4673;DHT22;61885;53.560;9.940;2024-03-02T09:04:15;9.10;89.00
4673;DHT22;61885;53.560;9.940;2024-03-02T09:06:17;9.10;88.90
4673;DHT22;61885;53.560;9.940;2024-03-02T09:08:20;9.20;88.50
4673;DHT22;61885;53.560;9.940;2024-03-02T09:10:24;9.30;88.60
4673;DHT22;61885;53.560;9.940;2024-03-02T09:12:25;9.30;87.80
4673;DHT22;61885;53.560;9.940;2024-03-02T09:14:27;9.60;87.30
4673;DHT22;61885;53.560;9.940;2024-03-02T09:16:29;9.60;87.10
4673;DHT22;61885;53.560;9.940;2024-03-02T09:18:31;9.50;87.00
4673;DHT22;61885;53.560;9.940;2024-03-02T09:20:33;9.70;87.20
4673;DHT22;61885;53.560;9.940;2024-03-02T09:22:36;9.70;86.90
4673;DHT22;61885;53.560;9.940;2024-03-02T09:24:37;9.60;86.70
4673;DHT22;61885;53.560;9.940;2024-03-02T09:26:40;9.70;86.60
4673;DHT22;61885;53.560;9.940;2024-03-02T09:28:42;9.60;86.60
4673;DHT22;61885;53.560;9.940;2024-03-02T09:30:44;9.60;86.70
4673;DHT22;61885;53.560;9.940;2024-03-02T09:32:46;9.70;86.90
4673;DHT22;61885;53.560;9.940;2024-03-02T09:34:48;9.60;86.40
4673;DHT22;61885;53.560;9.940;2024-03-02T09:36:50;9.60;86.40
4673;DHT22;61885;53.560;9.940;2024-03-02T09:38:53;9.70;86.30
4673;DHT22;61885;53.560;9.940;2024-03-02T09:40:53;9.60;85.80
4673;DHT22;61885;53.560;9.940;2024-03-02T09:42:57;9.70;86.30
4673;DHT22;61885;53.560;9.940;2024-03-02T09:44:59;9.80;86.20
4673;DHT22;61885;53.560;9.940;2024-03-02T09:47:00;9.90;85.50
4673;DHT22;61885;53.560;9.940;2024-03-02T09:49:01;9.90;85.30
4673;DHT22;61885;53.560;9.940;2024-03-02T09:51:04;10.00;85.30
4673;DHT22;61885;53.560;9.940;2024-03-02T09:53:07;10.10;84.90
4673;DHT22;61885;53.560;9.940;2024-03-02T09:55:09;10.10;84.40
4673;DHT22;61885;53.560;9.940;2024-03-02T09:57:13;10.20;83.90
4673;DHT22;61885;53.560;9.940;2024-03-02T09:59:16;10.30;83.90
4673;DHT22;61885;53.560;9.940;2024-03-02T10:01:19;10.20;83.90
4673;DHT22;61885;53.560;9.940;2024-03-02T10:03:23;10.40;83.30
4673;DHT22;61885;53.560;9.940;2024-03-02T10:05:25;10.30;83.40
4673;DHT22;61885;53.560;9.940;2024-03-02T10:07:28;10.50;83.60
4673;DHT22;61885;53.560;9.940;2024-03-02T10:09:30;10.70;83.20
4673;DHT22;61885;53.560;9.940;2024-03-02T10:11:33;10.70;82.80
4673;DHT22;61885;53.560;9.940;2024-03-02T10:13:37;10.80;82.60
4673;DHT22;61885;53.560;9.940;2024-03-02T10:15:41;10.70;82.00
4673;DHT22;61885;53.560;9.940;2024-03-02T10:17:43;10.80;82.30
4673;DHT22;61885;53.560;9.940;2024-03-02T10:19:43;10.90;81.60
4673;DHT22;61885;53.560;9.940;2024-03-02T10:21:46;10.90;81.70
4673;DHT22;61885;53.560;9.940;2024-03-02T10:23:47;11.00;80.90
4673;DHT22;61885;53.560;9.940;2024-03-02T10:25:49;10.90;81.30
4673;DHT22;61885;53.560;9.940;2024-03-02T10:27:50;10.90;81.20
4673;DHT22;61885;53.560;9.940;2024-03-02T10:29:51;11.00;81.00
4673;DHT22;61885;53.560;9.940;2024-03-02T10:31:55;11.10;80.90
4673;DHT22;61885;53.560;9.940;2024-03-02T10:33:59;11.10;80.60
4673;DHT22;61885;53.560;9.940;2024-03-02T10:36:02;11.20;80.00
4673;DHT22;61885;53.560;9.940;2024-03-02T10:38:04;11.30;80.10
4673;DHT22;61885;53.560;9.940;2024-03-02T10:40:08;11.40;80.00
4673;DHT22;61885;53.560;9.940;2024-03-02T10:42:12;11.70;79.50
4673;DHT22;61885;53.560;9.940;2024-03-02T10:44:14;11.90;79.60
4673;DHT22;61885;53.560;9.940;2024-03-02T10:46:16;12.10;79.00
4673;DHT22;61885;53.560;9.940;2024-03-02T10:48:21;12.10;78.90
4673;DHT22;61885;53.560;9.940;2024-03-02T10:50:24;12.00;78.60
4673;DHT22;61885;53.560;9.940;2024-03-02T10:52:26;12.10;78.60
4673;DHT22;61885;53.560;9.940;2024-03-02T10:54:28;12.20;78.70
4673;DHT22;61885;53.560;9.940;2024-03-02T10:56:39;12.40;78.40
4673;DHT22;61885;53.560;9.940;2024-03-02T10:58:41;12.50;78.10
4673;DHT22;61885;53.560;9.940;2024-03-02T11:00:43;12.60;77.50
4673;DHT22;61885;53.560;9.940;2024-03-02T11:02:49;12.60;76.30
4673;DHT22;61885;53.560;9.940;2024-03-02T11:04:55;12.60;74.60
4673;DHT22;61885;53.560;9.940;2024-03-02T11:06:59;12.70;74.00
4673;DHT22;61885;53.560;9.940;2024-03-02T11:09:06;12.90;73.40
4673;DHT22;61885;53.560;9.940;2024-03-02T11:11:18;12.90;73.60
4673;DHT22;61885;53.560;9.940;2024-03-02T11:13:30;13.00;73.60
4673;DHT22;61885;53.560;9.940;2024-03-02T11:15:34;13.10;72.30
4673;DHT22;61885;53.560;9.940;2024-03-02T11:17:37;13.10;73.10
4673;DHT22;61885;53.560;9.940;2024-03-02T11:19:41;13.00;73.50
4673;DHT22;61885;53.560;9.940;2024-03-02T11:21:44;13.00;73.60
4673;DHT22;61885;53.560;9.940;2024-03-02T11:23:46;13.10;73.00
4673;DHT22;61885;53.560;9.940;2024-03-02T11:25:48;13.20;73.40
4673;DHT22;61885;53.560;9.940;2024-03-02T11:28:00;13.40;71.80
4673;DHT22;61885;53.560;9.940;2024-03-02T11:30:02;13.40;72.20
4673;DHT22;61885;53.560;9.940;2024-03-02T11:32:05;13.50;72.10
4673;DHT22;61885;53.560;9.940;2024-03-02T11:34:17;13.60;72.20
4673;DHT22;61885;53.560;9.940;2024-03-02T11:36:19;13.60;71.30
4673;DHT22;61885;53.560;9.940;2024-03-02T11:38:22;13.50;69.70
4673;DHT22;61885;53.560;9.940;2024-03-02T11:40:25;13.40;70.50
4673;DHT22;61885;53.560;9.940;2024-03-02T11:42:27;13.50;70.80
4673;DHT22;61885;53.560;9.940;2024-03-02T11:44:29;13.50;71.30
4673;DHT22;61885;53.560;9.940;2024-03-02T11:46:30;13.60;71.10
4673;DHT22;61885;53.560;9.940;2024-03-02T11:48:32;13.70;71.20
4673;DHT22;61885;53.560;9.940;2024-03-02T11:50:34;13.70;71.20
4673;DHT22;61885;53.560;9.940;2024-03-02T11:52:38;13.80;71.20
4673;DHT22;61885;53.560;9.940;2024-03-02T11:54:44;13.70;71.30
4673;DHT22;61885;53.560;9.940;2024-03-02T11:56:48;13.60;71.20
4673;DHT22;61885;53.560;9.940;2024-03-02T11:58:49;13.60;71.70
4673;DHT22;61885;53.560;9.940;2024-03-02T12:00:54;13.60;72.10
4673;DHT22;61885;53.560;9.940;2024-03-02T12:03:00;13.60;71.60
4673;DHT22;61885;53.560;9.940;2024-03-02T12:05:03;13.50;72.10
4673;DHT22;61885;53.560;9.940;2024-03-02T12:07:05;13.50;71.90
4673;DHT22;61885;53.560;9.940;2024-03-02T12:09:06;13.70;73.30
4673;DHT22;61885;53.560;9.940;2024-03-02T12:11:14;14.00;73.90
4673;DHT22;61885;53.560;9.940;2024-03-02T12:13:17;14.00;70.50
4673;DHT22;61885;53.560;9.940;2024-03-02T12:15:23;14.20;70.70
4673;DHT22;61885;53.560;9.940;2024-03-02T12:17:24;14.20;71.10
4673;DHT22;61885;53.560;9.940;2024-03-02T12:19:26;14.20;70.30
4673;DHT22;61885;53.560;9.940;2024-03-02T12:21:30;14.20;69.30
4673;DHT22;61885;53.560;9.940;2024-03-02T12:23:32;14.40;69.10
4673;DHT22;61885;53.560;9.940;2024-03-02T12:25:34;14.20;69.30
4673;DHT22;61885;53.560;9.940;2024-03-02T12:27:38;14.30;68.90
4673;DHT22;61885;53.560;9.940;2024-03-02T12:29:41;14.30;67.60
4673;DHT22;61885;53.560;9.940;2024-03-02T12:31:43;14.00;68.90
4673;DHT22;61885;53.560;9.940;2024-03-02T12:33:46;13.90;69.10
4673;DHT22;61885;53.560;9.940;2024-03-02T12:35:49;13.90;69.70
4673;DHT22;61885;53.560;9.940;2024-03-02T12:37:52;14.10;70.00
4673;DHT22;61885;53.560;9.940;2024-03-02T12:39:54;14.10;68.90
4673;DHT22;61885;53.560;9.940;2024-03-02T12:41:55;13.90;69.20
4673;DHT22;61885;53.560;9.940;2024-03-02T12:43:58;14.00;69.60
4673;DHT22;61885;53.560;9.940;2024-03-02T12:46:00;13.90;69.20
4673;DHT22;61885;53.560;9.940;2024-03-02T12:48:03;13.90;69.20
4673;DHT22;61885;53.560;9.940;2024-03-02T12:50:06;13.90;69.30
4673;DHT22;61885;53.560;9.940;2024-03-02T12:52:08;13.90;69.00
4673;DHT22;61885;53.560;9.940;2024-03-02T12:54:10;13.90;69.10
4673;DHT22;61885;53.560;9.940;2024-03-02T12:56:12;13.90;68.70
4673;DHT22;61885;53.560;9.940;2024-03-02T12:58:19;14.00;69.00
4673;DHT22;61885;53.560;9.940;2024-03-02T13:00:22;14.00;69.20
4673;DHT22;61885;53.560;9.940;2024-03-02T13:02:28;14.10;68.80
4673;DHT22;61885;53.560;9.940;2024-03-02T13:04:29;14.20;68.40
4673;DHT22;61885;53.560;9.940;2024-03-02T13:06:33;14.20;68.10
4673;DHT22;61885;53.560;9.940;2024-03-02T13:08:35;14.30;68.40
4673;DHT22;61885;53.560;9.940;2024-03-02T13:10:37;14.10;68.20
4673;DHT22;61885;53.560;9.940;2024-03-02T13:12:41;13.90;67.70
4673;DHT22;61885;53.560;9.940;2024-03-02T13:14:43;13.70;68.30
4673;DHT22;61885;53.560;9.940;2024-03-02T13:16:46;13.60;69.00